sensor_id;sensor_type;location;lat;lon;timestamp;P1;durP1;ratioP1;P2;durP2;ratioP2
25854;SDS011;13680;49.936;11.344;2022-07-29T00:01:47;5.85;;;2.00;;
25854;SDS011;13680;49.936;11.344;2022-07-29T00:04:12;7.85;;;2.10;;
25854;SDS011;13680;49.936;11.344;2022-07-29T00:06:38;6.90;;;2.40;;
25854;SDS011;13680;49.936;11.344;2022-07-29T00:09:03;4.63;;;2.03;;
25854;SDS011;13680;49.936;11.344;2022-07-29T00:11:29;6.78;;;1.88;;
25854;SDS011;13680;49.936;11.344;2022-07-29T00:13:54;8.23;;;2.10;;
25854;SDS011;13680;49.936;11.344;2022-07-29T00:16:20;4.63;;;1.77;;
25854;SDS011;13680;49.936;11.344;2022-07-29T00:18:45;4.82;;;1.67;;
25854;SDS011;13680;49.936;11.344;2022-07-29T00:21:10;8.20;;;2.17;;
25854;SDS011;13680;49.936;11.344;2022-07-29T00:23:36;7.10;;;2.15;;
25854;SDS011;13680;49.936;11.344;2022-07-29T00:26:01;8.20;;;2.28;;
25854;SDS011;13680;49.936;11.344;2022-07-29T00:28:26;4.53;;;2.20;;
25854;SDS011;13680;49.936;11.344;2022-07-29T00:30:52;3.67;;;2.00;;
25854;SDS011;13680;49.936;11.344;2022-07-29T00:33:17;8.35;;;2.10;;
25854;SDS011;13680;49.936;11.344;2022-07-29T00:35:42;6.03;;;1.90;;
25854;SDS011;13680;49.936;11.344;2022-07-29T00:38:15;5.57;;;1.65;;
25854;SDS011;13680;49.936;11.344;2022-07-29T00:40:41;3.78;;;1.50;;
25854;SDS011;13680;49.936;11.344;2022-07-29T00:43:07;7.15;;;2.03;;
25854;SDS011;13680;49.936;11.344;2022-07-29T00:45:33;9.00;;;1.65;;
25854;SDS011;13680;49.936;11.344;2022-07-29T00:47:59;3.63;;;1.45;;
25854;SDS011;13680;49.936;11.344;2022-07-29T00:50:25;5.05;;;1.88;;
25854;SDS011;13680;49.936;11.344;2022-07-29T00:52:51;4.40;;;1.63;;
25854;SDS011;13680;49.936;11.344;2022-07-29T00:55:18;8.75;;;2.08;;
25854;SDS011;13680;49.936;11.344;2022-07-29T00:57:44;4.70;;;1.48;;
25854;SDS011;13680;49.936;11.344;2022-07-29T01:00:11;7.43;;;2.03;;
25854;SDS011;13680;49.936;11.344;2022-07-29T01:02:40;4.35;;;1.70;;
25854;SDS011;13680;49.936;11.344;2022-07-29T01:05:06;6.30;;;1.98;;
25854;SDS011;13680;49.936;11.344;2022-07-29T01:07:33;6.85;;;1.67;;
25854;SDS011;13680;49.936;11.344;2022-07-29T01:10:00;5.90;;;2.00;;
25854;SDS011;13680;49.936;11.344;2022-07-29T01:12:27;6.28;;;1.80;;
25854;SDS011;13680;49.936;11.344;2022-07-29T01:14:57;3.85;;;1.58;;
25854;SDS011;13680;49.936;11.344;2022-07-29T01:17:26;2.58;;;1.55;;
25854;SDS011;13680;49.936;11.344;2022-07-29T01:25:29;9.02;;;1.40;;
25854;SDS011;13680;49.936;11.344;2022-07-29T01:30:55;3.53;;;1.70;;
25854;SDS011;13680;49.936;11.344;2022-07-29T01:33:21;6.45;;;2.05;;
25854;SDS011;13680;49.936;11.344;2022-07-29T01:36:10;4.47;;;1.60;;
25854;SDS011;13680;49.936;11.344;2022-07-29T01:38:44;4.22;;;1.63;;
25854;SDS011;13680;49.936;11.344;2022-07-29T01:41:16;5.25;;;1.70;;
25854;SDS011;13680;49.936;11.344;2022-07-29T01:43:49;4.85;;;1.48;;
25854;SDS011;13680;49.936;11.344;2022-07-29T01:46:52;6.47;;;1.55;;
25854;SDS011;13680;49.936;11.344;2022-07-29T01:49:24;4.55;;;1.58;;
25854;SDS011;13680;49.936;11.344;2022-07-29T01:51:54;8.15;;;1.83;;
25854;SDS011;13680;49.936;11.344;2022-07-29T01:57:08;5.13;;;1.48;;
25854;SDS011;13680;49.936;11.344;2022-07-29T01:59:36;4.88;;;1.67;;
25854;SDS011;13680;49.936;11.344;2022-07-29T02:02:02;5.65;;;1.55;;
25854;SDS011;13680;49.936;11.344;2022-07-29T02:04:29;4.30;;;1.38;;
25854;SDS011;13680;49.936;11.344;2022-07-29T02:06:58;10.82;;;1.65;;
25854;SDS011;13680;49.936;11.344;2022-07-29T02:09:27;5.45;;;1.58;;
25854;SDS011;13680;49.936;11.344;2022-07-29T02:11:55;8.20;;;1.73;;
25854;SDS011;13680;49.936;11.344;2022-07-29T02:14:22;7.05;;;2.33;;
25854;SDS011;13680;49.936;11.344;2022-07-29T02:16:48;5.30;;;1.60;;
25854;SDS011;13680;49.936;11.344;2022-07-29T02:19:18;4.10;;;1.60;;
25854;SDS011;13680;49.936;11.344;2022-07-29T02:21:46;8.50;;;1.55;;
25854;SDS011;13680;49.936;11.344;2022-07-29T02:24:12;5.05;;;2.00;;
25854;SDS011;13680;49.936;11.344;2022-07-29T02:26:41;5.18;;;1.75;;
25854;SDS011;13680;49.936;11.344;2022-07-29T02:29:08;2.13;;;1.33;;
25854;SDS011;13680;49.936;11.344;2022-07-29T02:31:34;6.45;;;1.80;;
25854;SDS011;13680;49.936;11.344;2022-07-29T02:34:03;6.40;;;1.63;;
25854;SDS011;13680;49.936;11.344;2022-07-29T02:36:31;4.40;;;1.40;;
25854;SDS011;13680;49.936;11.344;2022-07-29T02:38:58;6.63;;;1.67;;
25854;SDS011;13680;49.936;11.344;2022-07-29T02:41:47;4.55;;;1.48;;
25854;SDS011;13680;49.936;11.344;2022-07-29T02:44:16;6.65;;;1.92;;
25854;SDS011;13680;49.936;11.344;2022-07-29T02:52:54;4.60;;;1.85;;
25854;SDS011;13680;49.936;11.344;2022-07-29T02:55:25;6.45;;;1.70;;
25854;SDS011;13680;49.936;11.344;2022-07-29T02:57:57;10.20;;;2.00;;
25854;SDS011;13680;49.936;11.344;2022-07-29T03:00:29;5.07;;;1.63;;
25854;SDS011;13680;49.936;11.344;2022-07-29T03:02:59;4.28;;;1.55;;
25854;SDS011;13680;49.936;11.344;2022-07-29T03:05:26;6.57;;;1.83;;
25854;SDS011;13680;49.936;11.344;2022-07-29T03:07:56;5.53;;;1.85;;
25854;SDS011;13680;49.936;11.344;2022-07-29T03:10:25;4.00;;;1.67;;
25854;SDS011;13680;49.936;11.344;2022-07-29T03:12:51;3.95;;;1.92;;
25854;SDS011;13680;49.936;11.344;2022-07-29T03:15:17;7.32;;;2.15;;
25854;SDS011;13680;49.936;11.344;2022-07-29T03:17:43;4.93;;;2.05;;
25854;SDS011;13680;49.936;11.344;2022-07-29T03:20:09;8.02;;;1.85;;
25854;SDS011;13680;49.936;11.344;2022-07-29T03:22:39;3.28;;;1.58;;
25854;SDS011;13680;49.936;11.344;2022-07-29T03:25:09;3.60;;;1.80;;
25854;SDS011;13680;49.936;11.344;2022-07-29T03:27:35;5.95;;;1.45;;
25854;SDS011;13680;49.936;11.344;2022-07-29T03:30:00;8.98;;;1.77;;
25854;SDS011;13680;49.936;11.344;2022-07-29T03:32:25;3.22;;;1.73;;
25854;SDS011;13680;49.936;11.344;2022-07-29T03:34:51;9.98;;;1.30;;
25854;SDS011;13680;49.936;11.344;2022-07-29T03:37:16;7.72;;;1.75;;
25854;SDS011;13680;49.936;11.344;2022-07-29T03:39:41;5.90;;;2.08;;
25854;SDS011;13680;49.936;11.344;2022-07-29T03:42:10;4.63;;;1.48;;
25854;SDS011;13680;49.936;11.344;2022-07-29T03:44:39;4.05;;;1.60;;
25854;SDS011;13680;49.936;11.344;2022-07-29T03:47:07;4.97;;;1.42;;
25854;SDS011;13680;49.936;11.344;2022-07-29T03:49:34;6.00;;;1.65;;
25854;SDS011;13680;49.936;11.344;2022-07-29T03:52:02;4.57;;;1.70;;
25854;SDS011;13680;49.936;11.344;2022-07-29T03:54:29;4.45;;;1.40;;
25854;SDS011;13680;49.936;11.344;2022-07-29T03:56:54;4.57;;;2.05;;
25854;SDS011;13680;49.936;11.344;2022-07-29T03:59:24;7.75;;;1.58;;
25854;SDS011;13680;49.936;11.344;2022-07-29T04:01:51;5.45;;;1.33;;
25854;SDS011;13680;49.936;11.344;2022-07-29T04:04:18;2.95;;;1.40;;
25854;SDS011;13680;49.936;11.344;2022-07-29T04:06:44;3.22;;;1.55;;
25854;SDS011;13680;49.936;11.344;2022-07-29T04:09:11;7.03;;;1.70;;
25854;SDS011;13680;49.936;11.344;2022-07-29T04:11:40;5.53;;;1.60;;
25854;SDS011;13680;49.936;11.344;2022-07-29T04:14:06;4.55;;;1.67;;
25854;SDS011;13680;49.936;11.344;2022-07-29T04:16:32;3.78;;;1.77;;
25854;SDS011;13680;49.936;11.344;2022-07-29T04:18:57;4.70;;;1.48;;
25854;SDS011;13680;49.936;11.344;2022-07-29T04:21:23;7.88;;;2.10;;
25854;SDS011;13680;49.936;11.344;2022-07-29T04:23:48;5.68;;;1.40;;
25854;SDS011;13680;49.936;11.344;2022-07-29T04:26:18;5.60;;;1.77;;
25854;SDS011;13680;49.936;11.344;2022-07-29T04:28:44;4.03;;;2.05;;
25854;SDS011;13680;49.936;11.344;2022-07-29T04:31:10;7.50;;;1.73;;
25854;SDS011;13680;49.936;11.344;2022-07-29T04:33:36;6.20;;;1.55;;
25854;SDS011;13680;49.936;11.344;2022-07-29T04:36:02;4.97;;;1.35;;
25854;SDS011;13680;49.936;11.344;2022-07-29T04:38:28;6.72;;;1.88;;
25854;SDS011;13680;49.936;11.344;2022-07-29T04:40:53;4.97;;;1.65;;
25854;SDS011;13680;49.936;11.344;2022-07-29T04:43:19;3.78;;;1.27;;
25854;SDS011;13680;49.936;11.344;2022-07-29T04:45:44;7.38;;;1.60;;
25854;SDS011;13680;49.936;11.344;2022-07-29T04:48:10;5.65;;;2.33;;
25854;SDS011;13680;49.936;11.344;2022-07-29T04:50:37;5.15;;;1.40;;
25854;SDS011;13680;49.936;11.344;2022-07-29T04:53:03;4.93;;;1.55;;
25854;SDS011;13680;49.936;11.344;2022-07-29T04:55:29;4.95;;;1.60;;
25854;SDS011;13680;49.936;11.344;2022-07-29T04:57:54;5.72;;;1.50;;
25854;SDS011;13680;49.936;11.344;2022-07-29T05:00:19;4.72;;;1.40;;
25854;SDS011;13680;49.936;11.344;2022-07-29T05:02:45;3.97;;;1.65;;
25854;SDS011;13680;49.936;11.344;2022-07-29T05:05:10;6.53;;;1.60;;
25854;SDS011;13680;49.936;11.344;2022-07-29T05:07:35;7.68;;;1.80;;
25854;SDS011;13680;49.936;11.344;2022-07-29T05:10:01;4.75;;;2.00;;
25854;SDS011;13680;49.936;11.344;2022-07-29T05:12:26;7.35;;;1.63;;
25854;SDS011;13680;49.936;11.344;2022-07-29T05:14:52;5.93;;;1.73;;
25854;SDS011;13680;49.936;11.344;2022-07-29T05:17:18;3.80;;;1.40;;
25854;SDS011;13680;49.936;11.344;2022-07-29T05:19:43;4.00;;;1.60;;
25854;SDS011;13680;49.936;11.344;2022-07-29T05:22:09;10.13;;;1.63;;
25854;SDS011;13680;49.936;11.344;2022-07-29T05:24:34;3.50;;;1.70;;
25854;SDS011;13680;49.936;11.344;2022-07-29T05:26:59;4.72;;;1.70;;
25854;SDS011;13680;49.936;11.344;2022-07-29T05:29:25;3.30;;;1.65;;
25854;SDS011;13680;49.936;11.344;2022-07-29T05:31:51;6.30;;;1.60;;
25854;SDS011;13680;49.936;11.344;2022-07-29T05:34:17;3.88;;;1.55;;
25854;SDS011;13680;49.936;11.344;2022-07-29T05:36:44;2.30;;;1.58;;
25854;SDS011;13680;49.936;11.344;2022-07-29T05:39:10;6.90;;;1.90;;
25854;SDS011;13680;49.936;11.344;2022-07-29T05:41:35;4.80;;;1.80;;
25854;SDS011;13680;49.936;11.344;2022-07-29T05:44:01;5.13;;;1.70;;
25854;SDS011;13680;49.936;11.344;2022-07-29T05:46:27;10.52;;;1.80;;
25854;SDS011;13680;49.936;11.344;2022-07-29T05:48:52;6.65;;;1.50;;
25854;SDS011;13680;49.936;11.344;2022-07-29T05:51:18;4.07;;;1.67;;
25854;SDS011;13680;49.936;11.344;2022-07-29T05:53:43;7.10;;;1.38;;
25854;SDS011;13680;49.936;11.344;2022-07-29T05:56:09;10.27;;;1.63;;
25854;SDS011;13680;49.936;11.344;2022-07-29T05:58:35;7.30;;;1.70;;
25854;SDS011;13680;49.936;11.344;2022-07-29T06:01:01;6.10;;;1.40;;
25854;SDS011;13680;49.936;11.344;2022-07-29T06:03:26;8.57;;;1.85;;
25854;SDS011;13680;49.936;11.344;2022-07-29T06:05:52;3.17;;;1.58;;
25854;SDS011;13680;49.936;11.344;2022-07-29T06:08:19;4.65;;;1.80;;
25854;SDS011;13680;49.936;11.344;2022-07-29T06:10:45;6.20;;;1.77;;
25854;SDS011;13680;49.936;11.344;2022-07-29T06:13:11;6.78;;;1.35;;
25854;SDS011;13680;49.936;11.344;2022-07-29T06:15:37;4.75;;;1.50;;
25854;SDS011;13680;49.936;11.344;2022-07-29T06:18:02;6.43;;;1.75;;
25854;SDS011;13680;49.936;11.344;2022-07-29T06:20:28;6.28;;;1.80;;
25854;SDS011;13680;49.936;11.344;2022-07-29T06:22:55;5.88;;;1.45;;
25854;SDS011;13680;49.936;11.344;2022-07-29T06:25:20;8.02;;;1.90;;
25854;SDS011;13680;49.936;11.344;2022-07-29T06:27:46;7.07;;;2.17;;
25854;SDS011;13680;49.936;11.344;2022-07-29T06:30:11;7.82;;;1.58;;
25854;SDS011;13680;49.936;11.344;2022-07-29T06:32:37;7.35;;;1.88;;
25854;SDS011;13680;49.936;11.344;2022-07-29T06:35:03;6.82;;;1.80;;
25854;SDS011;13680;49.936;11.344;2022-07-29T06:37:28;4.32;;;1.50;;
25854;SDS011;13680;49.936;11.344;2022-07-29T06:39:54;5.97;;;2.00;;
25854;SDS011;13680;49.936;11.344;2022-07-29T06:42:41;8.73;;;2.20;;
25854;SDS011;13680;49.936;11.344;2022-07-29T06:45:07;4.72;;;1.67;;
25854;SDS011;13680;49.936;11.344;2022-07-29T06:47:33;11.00;;;1.77;;
25854;SDS011;13680;49.936;11.344;2022-07-29T06:49:59;6.68;;;1.63;;
25854;SDS011;13680;49.936;11.344;2022-07-29T06:52:24;11.48;;;1.88;;
25854;SDS011;13680;49.936;11.344;2022-07-29T06:54:50;4.30;;;1.85;;
25854;SDS011;13680;49.936;11.344;2022-07-29T06:57:16;9.90;;;1.70;;
25854;SDS011;13680;49.936;11.344;2022-07-29T06:59:41;8.68;;;1.90;;
25854;SDS011;13680;49.936;11.344;2022-07-29T07:02:06;4.72;;;1.75;;
25854;SDS011;13680;49.936;11.344;2022-07-29T07:04:32;3.90;;;1.67;;
25854;SDS011;13680;49.936;11.344;2022-07-29T07:06:57;3.30;;;1.80;;
25854;SDS011;13680;49.936;11.344;2022-07-29T07:09:24;5.10;;;2.10;;
25854;SDS011;13680;49.936;11.344;2022-07-29T07:11:49;8.15;;;1.85;;
25854;SDS011;13680;49.936;11.344;2022-07-29T07:14:14;11.10;;;1.98;;
25854;SDS011;13680;49.936;11.344;2022-07-29T07:16:40;6.97;;;1.77;;
25854;SDS011;13680;49.936;11.344;2022-07-29T07:19:05;6.68;;;1.67;;
25854;SDS011;13680;49.936;11.344;2022-07-29T07:21:30;4.32;;;1.40;;
25854;SDS011;13680;49.936;11.344;2022-07-29T07:23:58;8.00;;;2.17;;
25854;SDS011;13680;49.936;11.344;2022-07-29T07:26:24;11.15;;;1.90;;
25854;SDS011;13680;49.936;11.344;2022-07-29T07:28:50;5.00;;;1.80;;
25854;SDS011;13680;49.936;11.344;2022-07-29T07:31:15;5.82;;;1.65;;
25854;SDS011;13680;49.936;11.344;2022-07-29T07:33:40;4.70;;;1.80;;
25854;SDS011;13680;49.936;11.344;2022-07-29T07:36:06;7.78;;;1.90;;
25854;SDS011;13680;49.936;11.344;2022-07-29T07:38:31;5.05;;;1.92;;
25854;SDS011;13680;49.936;11.344;2022-07-29T07:40:57;3.25;;;1.65;;
25854;SDS011;13680;49.936;11.344;2022-07-29T07:43:22;4.43;;;2.10;;
25854;SDS011;13680;49.936;11.344;2022-07-29T07:45:47;3.20;;;1.80;;
25854;SDS011;13680;49.936;11.344;2022-07-29T07:48:13;8.85;;;1.80;;
25854;SDS011;13680;49.936;11.344;2022-07-29T07:50:38;5.70;;;1.63;;
25854;SDS011;13680;49.936;11.344;2022-07-29T07:53:03;5.47;;;1.48;;
25854;SDS011;13680;49.936;11.344;2022-07-29T07:55:29;6.82;;;1.80;;
25854;SDS011;13680;49.936;11.344;2022-07-29T07:57:54;4.75;;;1.60;;
25854;SDS011;13680;49.936;11.344;2022-07-29T08:00:20;6.05;;;1.73;;
25854;SDS011;13680;49.936;11.344;2022-07-29T08:02:46;4.60;;;1.95;;
25854;SDS011;13680;49.936;11.344;2022-07-29T08:05:12;4.05;;;1.48;;
25854;SDS011;13680;49.936;11.344;2022-07-29T08:07:42;13.55;;;2.33;;
25854;SDS011;13680;49.936;11.344;2022-07-29T08:10:08;6.93;;;1.80;;
25854;SDS011;13680;49.936;11.344;2022-07-29T08:12:34;10.57;;;2.00;;
25854;SDS011;13680;49.936;11.344;2022-07-29T08:14:59;7.88;;;2.15;;
25854;SDS011;13680;49.936;11.344;2022-07-29T08:17:25;4.72;;;1.80;;
25854;SDS011;13680;49.936;11.344;2022-07-29T08:19:51;6.32;;;2.28;;
25854;SDS011;13680;49.936;11.344;2022-07-29T08:22:16;7.55;;;1.90;;
25854;SDS011;13680;49.936;11.344;2022-07-29T08:24:42;4.32;;;1.95;;
25854;SDS011;13680;49.936;11.344;2022-07-29T08:27:07;6.22;;;2.03;;
25854;SDS011;13680;49.936;11.344;2022-07-29T08:29:33;3.83;;;2.13;;
25854;SDS011;13680;49.936;11.344;2022-07-29T08:31:59;4.65;;;2.15;;
25854;SDS011;13680;49.936;11.344;2022-07-29T08:34:24;3.95;;;2.10;;
25854;SDS011;13680;49.936;11.344;2022-07-29T08:36:50;6.93;;;2.13;;
25854;SDS011;13680;49.936;11.344;2022-07-29T08:39:16;4.95;;;2.03;;
25854;SDS011;13680;49.936;11.344;2022-07-29T08:41:42;4.68;;;1.88;;
25854;SDS011;13680;49.936;11.344;2022-07-29T08:44:08;5.05;;;2.13;;
25854;SDS011;13680;49.936;11.344;2022-07-29T08:46:34;4.38;;;1.92;;
25854;SDS011;13680;49.936;11.344;2022-07-29T08:49:03;5.10;;;2.35;;
25854;SDS011;13680;49.936;11.344;2022-07-29T08:51:28;4.97;;;1.90;;
25854;SDS011;13680;49.936;11.344;2022-07-29T08:53:55;4.18;;;1.95;;
25854;SDS011;13680;49.936;11.344;2022-07-29T08:56:21;4.95;;;2.17;;
25854;SDS011;13680;49.936;11.344;2022-07-29T08:58:47;3.67;;;1.90;;
25854;SDS011;13680;49.936;11.344;2022-07-29T09:01:14;5.13;;;2.42;;
25854;SDS011;13680;49.936;11.344;2022-07-29T09:03:43;4.07;;;2.05;;
25854;SDS011;13680;49.936;11.344;2022-07-29T09:06:11;2.88;;;1.58;;
25854;SDS011;13680;49.936;11.344;2022-07-29T09:08:38;8.48;;;1.92;;
25854;SDS011;13680;49.936;11.344;2022-07-29T09:11:04;3.00;;;1.98;;
25854;SDS011;13680;49.936;11.344;2022-07-29T09:13:32;4.30;;;2.10;;
25854;SDS011;13680;49.936;11.344;2022-07-29T09:15:57;7.00;;;2.33;;
25854;SDS011;13680;49.936;11.344;2022-07-29T09:18:39;4.55;;;2.10;;
25854;SDS011;13680;49.936;11.344;2022-07-29T09:21:06;4.50;;;2.20;;
25854;SDS011;13680;49.936;11.344;2022-07-29T09:24:07;4.80;;;2.30;;
25854;SDS011;13680;49.936;11.344;2022-07-29T09:26:40;6.15;;;2.10;;
25854;SDS011;13680;49.936;11.344;2022-07-29T09:29:12;3.78;;;2.08;;
25854;SDS011;13680;49.936;11.344;2022-07-29T09:31:40;4.40;;;2.15;;
25854;SDS011;13680;49.936;11.344;2022-07-29T09:34:11;4.30;;;2.38;;
25854;SDS011;13680;49.936;11.344;2022-07-29T09:39:06;5.50;;;2.10;;
25854;SDS011;13680;49.936;11.344;2022-07-29T09:41:43;7.22;;;2.25;;
25854;SDS011;13680;49.936;11.344;2022-07-29T09:44:13;7.97;;;2.42;;
25854;SDS011;13680;49.936;11.344;2022-07-29T09:46:40;7.43;;;2.05;;
25854;SDS011;13680;49.936;11.344;2022-07-29T09:49:16;4.18;;;2.30;;
25854;SDS011;13680;49.936;11.344;2022-07-29T09:51:42;6.50;;;2.20;;
25854;SDS011;13680;49.936;11.344;2022-07-29T09:54:22;7.22;;;2.30;;
25854;SDS011;13680;49.936;11.344;2022-07-29T09:56:49;5.05;;;1.90;;
25854;SDS011;13680;49.936;11.344;2022-07-29T09:59:14;4.78;;;2.33;;
25854;SDS011;13680;49.936;11.344;2022-07-29T10:01:40;3.42;;;2.33;;
25854;SDS011;13680;49.936;11.344;2022-07-29T10:04:05;9.07;;;2.63;;
25854;SDS011;13680;49.936;11.344;2022-07-29T10:06:31;6.50;;;2.20;;
25854;SDS011;13680;49.936;11.344;2022-07-29T10:09:09;5.65;;;2.45;;
25854;SDS011;13680;49.936;11.344;2022-07-29T10:11:36;5.93;;;2.33;;
25854;SDS011;13680;49.936;11.344;2022-07-29T10:14:02;7.38;;;2.00;;
25854;SDS011;13680;49.936;11.344;2022-07-29T10:16:28;6.15;;;2.10;;
25854;SDS011;13680;49.936;11.344;2022-07-29T10:18:57;5.22;;;2.40;;
25854;SDS011;13680;49.936;11.344;2022-07-29T10:21:23;5.63;;;2.83;;
25854;SDS011;13680;49.936;11.344;2022-07-29T10:23:50;8.10;;;3.67;;
25854;SDS011;13680;49.936;11.344;2022-07-29T10:26:17;3.42;;;2.30;;
25854;SDS011;13680;49.936;11.344;2022-07-29T10:28:44;9.27;;;3.00;;
25854;SDS011;13680;49.936;11.344;2022-07-29T10:31:11;10.32;;;2.40;;
25854;SDS011;13680;49.936;11.344;2022-07-29T10:34:02;11.48;;;2.33;;
25854;SDS011;13680;49.936;11.344;2022-07-29T10:36:54;10.13;;;2.75;;
25854;SDS011;13680;49.936;11.344;2022-07-29T10:42:08;6.80;;;2.88;;
25854;SDS011;13680;49.936;11.344;2022-07-29T10:44:41;4.10;;;2.38;;
25854;SDS011;13680;49.936;11.344;2022-07-29T10:47:08;6.97;;;2.55;;
25854;SDS011;13680;49.936;11.344;2022-07-29T10:49:54;4.38;;;2.40;;
25854;SDS011;13680;49.936;11.344;2022-07-29T10:52:21;2.80;;;2.20;;
25854;SDS011;13680;49.936;11.344;2022-07-29T10:54:49;3.45;;;2.25;;
25854;SDS011;13680;49.936;11.344;2022-07-29T11:05:17;4.47;;;2.47;;
25854;SDS011;13680;49.936;11.344;2022-07-29T11:10:45;3.42;;;2.25;;
25854;SDS011;13680;49.936;11.344;2022-07-29T11:13:11;5.65;;;2.42;;
25854;SDS011;13680;49.936;11.344;2022-07-29T11:15:52;3.88;;;2.60;;
25854;SDS011;13680;49.936;11.344;2022-07-29T11:18:19;2.75;;;2.13;;
25854;SDS011;13680;49.936;11.344;2022-07-29T11:20:46;5.57;;;2.30;;
25854;SDS011;13680;49.936;11.344;2022-07-29T11:23:19;4.32;;;2.50;;
25854;SDS011;13680;49.936;11.344;2022-07-29T11:28:35;4.70;;;1.85;;
25854;SDS011;13680;49.936;11.344;2022-07-29T11:31:07;5.05;;;2.10;;
25854;SDS011;13680;49.936;11.344;2022-07-29T11:33:35;9.80;;;2.00;;
25854;SDS011;13680;49.936;11.344;2022-07-29T11:36:07;10.38;;;2.20;;
25854;SDS011;13680;49.936;11.344;2022-07-29T11:38:34;8.27;;;2.60;;
25854;SDS011;13680;49.936;11.344;2022-07-29T11:49:20;6.23;;;2.20;;
25854;SDS011;13680;49.936;11.344;2022-07-29T11:51:54;4.25;;;2.17;;
25854;SDS011;13680;49.936;11.344;2022-07-29T11:54:23;4.43;;;2.58;;
25854;SDS011;13680;49.936;11.344;2022-07-29T11:56:51;7.28;;;2.63;;
25854;SDS011;13680;49.936;11.344;2022-07-29T11:59:17;6.45;;;2.80;;
25854;SDS011;13680;49.936;11.344;2022-07-29T12:01:53;8.63;;;3.20;;
25854;SDS011;13680;49.936;11.344;2022-07-29T12:04:19;15.98;;;3.80;;
25854;SDS011;13680;49.936;11.344;2022-07-29T12:06:51;21.95;;;3.40;;
25854;SDS011;13680;49.936;11.344;2022-07-29T12:09:18;11.75;;;3.72;;
25854;SDS011;13680;49.936;11.344;2022-07-29T12:11:43;18.35;;;4.40;;
25854;SDS011;13680;49.936;11.344;2022-07-29T12:14:09;14.52;;;3.80;;
25854;SDS011;13680;49.936;11.344;2022-07-29T12:16:35;13.27;;;4.72;;
25854;SDS011;13680;49.936;11.344;2022-07-29T12:19:02;19.38;;;5.28;;
25854;SDS011;13680;49.936;11.344;2022-07-29T12:21:29;14.45;;;5.65;;
25854;SDS011;13680;49.936;11.344;2022-07-29T12:24:14;15.20;;;5.63;;
25854;SDS011;13680;49.936;11.344;2022-07-29T12:26:50;24.08;;;5.05;;
25854;SDS011;13680;49.936;11.344;2022-07-29T12:29:21;10.00;;;5.53;;
25854;SDS011;13680;49.936;11.344;2022-07-29T12:31:48;13.73;;;6.78;;
25854;SDS011;13680;49.936;11.344;2022-07-29T12:34:19;9.63;;;5.50;;
25854;SDS011;13680;49.936;11.344;2022-07-29T12:36:47;12.00;;;5.18;;
25854;SDS011;13680;49.936;11.344;2022-07-29T12:39:14;14.60;;;5.70;;
25854;SDS011;13680;49.936;11.344;2022-07-29T12:41:40;10.88;;;5.78;;
25854;SDS011;13680;49.936;11.344;2022-07-29T12:44:06;13.88;;;5.57;;
25854;SDS011;13680;49.936;11.344;2022-07-29T12:46:31;8.63;;;5.25;;
25854;SDS011;13680;49.936;11.344;2022-07-29T12:48:57;12.98;;;5.50;;
25854;SDS011;13680;49.936;11.344;2022-07-29T12:51:34;10.18;;;5.57;;
25854;SDS011;13680;49.936;11.344;2022-07-29T12:54:05;11.45;;;5.28;;
25854;SDS011;13680;49.936;11.344;2022-07-29T12:56:36;12.15;;;4.57;;
25854;SDS011;13680;49.936;11.344;2022-07-29T12:59:16;9.05;;;4.72;;
25854;SDS011;13680;49.936;11.344;2022-07-29T13:01:43;5.43;;;3.65;;
25854;SDS011;13680;49.936;11.344;2022-07-29T13:04:09;6.38;;;4.10;;
25854;SDS011;13680;49.936;11.344;2022-07-29T13:06:40;5.85;;;3.88;;
25854;SDS011;13680;49.936;11.344;2022-07-29T13:11:43;5.57;;;4.05;;
25854;SDS011;13680;49.936;11.344;2022-07-29T13:14:11;7.82;;;4.57;;
25854;SDS011;13680;49.936;11.344;2022-07-29T13:17:00;5.00;;;4.07;;
25854;SDS011;13680;49.936;11.344;2022-07-29T13:19:38;6.07;;;4.20;;
25854;SDS011;13680;49.936;11.344;2022-07-29T13:22:09;7.45;;;4.05;;
25854;SDS011;13680;49.936;11.344;2022-07-29T13:24:48;7.05;;;4.10;;
25854;SDS011;13680;49.936;11.344;2022-07-29T13:27:22;5.15;;;3.78;;
25854;SDS011;13680;49.936;11.344;2022-07-29T13:29:52;4.40;;;3.30;;
25854;SDS011;13680;49.936;11.344;2022-07-29T13:32:21;6.22;;;3.60;;
25854;SDS011;13680;49.936;11.344;2022-07-29T13:34:47;4.85;;;3.72;;
25854;SDS011;13680;49.936;11.344;2022-07-29T13:37:12;7.78;;;3.83;;
25854;SDS011;13680;49.936;11.344;2022-07-29T13:39:38;7.80;;;3.45;;
25854;SDS011;13680;49.936;11.344;2022-07-29T13:42:04;6.50;;;3.58;;
25854;SDS011;13680;49.936;11.344;2022-07-29T13:44:30;7.00;;;3.40;;
25854;SDS011;13680;49.936;11.344;2022-07-29T13:46:55;4.65;;;2.95;;
25854;SDS011;13680;49.936;11.344;2022-07-29T13:49:21;6.53;;;3.20;;
25854;SDS011;13680;49.936;11.344;2022-07-29T13:51:48;5.30;;;3.33;;
25854;SDS011;13680;49.936;11.344;2022-07-29T13:54:14;3.92;;;3.40;;
25854;SDS011;13680;49.936;11.344;2022-07-29T13:56:39;6.20;;;3.47;;
25854;SDS011;13680;49.936;11.344;2022-07-29T13:59:04;6.55;;;3.38;;
25854;SDS011;13680;49.936;11.344;2022-07-29T14:01:30;5.45;;;3.50;;
25854;SDS011;13680;49.936;11.344;2022-07-29T14:03:55;4.97;;;4.00;;
25854;SDS011;13680;49.936;11.344;2022-07-29T14:06:21;5.40;;;3.65;;
25854;SDS011;13680;49.936;11.344;2022-07-29T14:08:46;6.05;;;3.45;;
25854;SDS011;13680;49.936;11.344;2022-07-29T14:11:11;5.85;;;3.17;;
25854;SDS011;13680;49.936;11.344;2022-07-29T14:13:37;6.20;;;2.90;;
25854;SDS011;13680;49.936;11.344;2022-07-29T14:16:02;5.13;;;3.17;;
25854;SDS011;13680;49.936;11.344;2022-07-29T14:18:28;6.03;;;3.42;;
25854;SDS011;13680;49.936;11.344;2022-07-29T14:20:53;7.35;;;3.30;;
25854;SDS011;13680;49.936;11.344;2022-07-29T14:23:18;5.15;;;2.90;;
25854;SDS011;13680;49.936;11.344;2022-07-29T14:25:44;4.53;;;2.97;;
25854;SDS011;13680;49.936;11.344;2022-07-29T14:28:09;5.07;;;2.83;;
25854;SDS011;13680;49.936;11.344;2022-07-29T14:30:35;3.28;;;2.40;;
25854;SDS011;13680;49.936;11.344;2022-07-29T14:33:00;6.72;;;2.25;;
25854;SDS011;13680;49.936;11.344;2022-07-29T14:35:25;3.60;;;2.05;;
25854;SDS011;13680;49.936;11.344;2022-07-29T14:37:51;4.45;;;1.90;;
25854;SDS011;13680;49.936;11.344;2022-07-29T14:40:16;2.35;;;1.85;;
25854;SDS011;13680;49.936;11.344;2022-07-29T14:42:41;3.55;;;2.20;;
25854;SDS011;13680;49.936;11.344;2022-07-29T14:45:07;5.20;;;2.30;;
25854;SDS011;13680;49.936;11.344;2022-07-29T14:47:34;3.20;;;2.40;;
25854;SDS011;13680;49.936;11.344;2022-07-29T14:50:00;2.47;;;2.10;;
25854;SDS011;13680;49.936;11.344;2022-07-29T14:52:25;6.82;;;2.30;;
25854;SDS011;13680;49.936;11.344;2022-07-29T14:54:51;3.38;;;2.42;;
25854;SDS011;13680;49.936;11.344;2022-07-29T14:57:16;4.20;;;2.40;;
25854;SDS011;13680;49.936;11.344;2022-07-29T14:59:41;4.07;;;2.42;;
25854;SDS011;13680;49.936;11.344;2022-07-29T15:02:07;5.85;;;2.80;;
25854;SDS011;13680;49.936;11.344;2022-07-29T15:04:32;3.47;;;2.53;;
25854;SDS011;13680;49.936;11.344;2022-07-29T15:06:58;4.07;;;2.70;;
25854;SDS011;13680;49.936;11.344;2022-07-29T15:09:23;3.95;;;2.50;;
25854;SDS011;13680;49.936;11.344;2022-07-29T15:11:49;3.15;;;2.53;;
25854;SDS011;13680;49.936;11.344;2022-07-29T15:14:14;4.15;;;2.80;;
25854;SDS011;13680;49.936;11.344;2022-07-29T15:16:40;5.50;;;3.10;;
25854;SDS011;13680;49.936;11.344;2022-07-29T15:19:07;5.25;;;3.10;;
25854;SDS011;13680;49.936;11.344;2022-07-29T15:21:33;5.45;;;2.92;;
25854;SDS011;13680;49.936;11.344;2022-07-29T15:23:58;4.60;;;2.92;;